sensor_id;sensor_type;location;lat;lon;timestamp;P1;durP1;ratioP1;P2;durP2;ratioP2
81799;SDS011;71195;52.528;5.704;2023-07-13T00:01:38;2.75;;;0.13;;
81799;SDS011;71195;52.528;5.704;2023-07-13T00:04:08;3.90;;;0.82;;
81799;SDS011;71195;52.528;5.704;2023-07-13T00:06:38;1.20;;;0.20;;
81799;SDS011;71195;52.528;5.704;2023-07-13T00:09:10;3.08;;;0.52;;
81799;SDS011;71195;52.528;5.704;2023-07-13T00:11:40;3.15;;;0.52;;
81799;SDS011;71195;52.528;5.704;2023-07-13T00:14:13;1.92;;;0.45;;
81799;SDS011;71195;52.528;5.704;2023-07-13T00:16:44;4.18;;;0.47;;
81799;SDS011;71195;52.528;5.704;2023-07-13T00:19:13;4.63;;;0.20;;
81799;SDS011;71195;52.528;5.704;2023-07-13T00:21:43;3.20;;;0.50;;
81799;SDS011;71195;52.528;5.704;2023-07-13T00:24:13;3.20;;;0.45;;
81799;SDS011;71195;52.528;5.704;2023-07-13T00:26:49;8.32;;;1.10;;
81799;SDS011;71195;52.528;5.704;2023-07-13T00:29:21;2.53;;;0.50;;
81799;SDS011;71195;52.528;5.704;2023-07-13T00:34:20;3.22;;;0.57;;
81799;SDS011;71195;52.528;5.704;2023-07-13T00:36:50;3.60;;;1.05;;
81799;SDS011;71195;52.528;5.704;2023-07-13T00:39:19;6.43;;;1.65;;
81799;SDS011;71195;52.528;5.704;2023-07-13T00:41:49;3.95;;;0.65;;
81799;SDS011;71195;52.528;5.704;2023-07-13T00:44:21;2.53;;;0.90;;
81799;SDS011;71195;52.528;5.704;2023-07-13T00:46:51;6.45;;;1.00;;
81799;SDS011;71195;52.528;5.704;2023-07-13T00:49:21;5.15;;;0.32;;
81799;SDS011;71195;52.528;5.704;2023-07-13T00:51:53;2.15;;;0.50;;
81799;SDS011;71195;52.528;5.704;2023-07-13T00:54:26;4.88;;;1.02;;
81799;SDS011;71195;52.528;5.704;2023-07-13T00:57:00;2.70;;;0.80;;
81799;SDS011;71195;52.528;5.704;2023-07-13T00:59:36;4.22;;;0.95;;
81799;SDS011;71195;52.528;5.704;2023-07-13T01:02:10;9.05;;;1.00;;
81799;SDS011;71195;52.528;5.704;2023-07-13T01:04:40;8.15;;;1.02;;
81799;SDS011;71195;52.528;5.704;2023-07-13T01:07:10;3.65;;;0.75;;
81799;SDS011;71195;52.528;5.704;2023-07-13T01:09:41;7.47;;;1.13;;
81799;SDS011;71195;52.528;5.704;2023-07-13T01:12:10;2.75;;;1.08;;
81799;SDS011;71195;52.528;5.704;2023-07-13T01:14:43;4.10;;;0.98;;
81799;SDS011;71195;52.528;5.704;2023-07-13T01:17:12;4.43;;;0.82;;
81799;SDS011;71195;52.528;5.704;2023-07-13T01:19:43;1.50;;;0.77;;
81799;SDS011;71195;52.528;5.704;2023-07-13T01:22:16;5.18;;;0.90;;
81799;SDS011;71195;52.528;5.704;2023-07-13T01:24:50;6.28;;;1.95;;
81799;SDS011;71195;52.528;5.704;2023-07-13T01:27:21;6.57;;;1.17;;
81799;SDS011;71195;52.528;5.704;2023-07-13T01:29:53;7.00;;;1.23;;
81799;SDS011;71195;52.528;5.704;2023-07-13T01:32:29;6.15;;;1.30;;
81799;SDS011;71195;52.528;5.704;2023-07-13T01:34:59;4.88;;;0.80;;
81799;SDS011;71195;52.528;5.704;2023-07-13T01:37:31;8.07;;;1.10;;
81799;SDS011;71195;52.528;5.704;2023-07-13T01:40:01;10.00;;;2.75;;
81799;SDS011;71195;52.528;5.704;2023-07-13T01:42:31;4.43;;;1.85;;
81799;SDS011;71195;52.528;5.704;2023-07-13T01:45:00;6.80;;;1.55;;
81799;SDS011;71195;52.528;5.704;2023-07-13T01:47:30;3.85;;;0.80;;
81799;SDS011;71195;52.528;5.704;2023-07-13T01:49:59;6.15;;;1.20;;
81799;SDS011;71195;52.528;5.704;2023-07-13T01:52:28;5.38;;;1.23;;
81799;SDS011;71195;52.528;5.704;2023-07-13T01:55:00;4.95;;;1.08;;
81799;SDS011;71195;52.528;5.704;2023-07-13T01:57:30;4.25;;;1.23;;
81799;SDS011;71195;52.528;5.704;2023-07-13T02:00:01;7.53;;;1.00;;
81799;SDS011;71195;52.528;5.704;2023-07-13T02:02:41;10.45;;;0.90;;
81799;SDS011;71195;52.528;5.704;2023-07-13T02:05:11;7.93;;;1.50;;
81799;SDS011;71195;52.528;5.704;2023-07-13T02:07:43;8.38;;;1.08;;
81799;SDS011;71195;52.528;5.704;2023-07-13T02:10:13;3.05;;;0.80;;
81799;SDS011;71195;52.528;5.704;2023-07-13T02:12:42;6.38;;;1.48;;
81799;SDS011;71195;52.528;5.704;2023-07-13T02:15:12;6.32;;;1.23;;
81799;SDS011;71195;52.528;5.704;2023-07-13T02:17:41;6.82;;;1.38;;
81799;SDS011;71195;52.528;5.704;2023-07-13T02:20:11;4.88;;;1.17;;
81799;SDS011;71195;52.528;5.704;2023-07-13T02:22:43;4.72;;;1.20;;
81799;SDS011;71195;52.528;5.704;2023-07-13T02:25:12;6.63;;;1.27;;
81799;SDS011;71195;52.528;5.704;2023-07-13T02:27:42;5.90;;;2.03;;
81799;SDS011;71195;52.528;5.704;2023-07-13T02:30:11;6.60;;;1.58;;
81799;SDS011;71195;52.528;5.704;2023-07-13T02:32:41;9.52;;;0.88;;
81799;SDS011;71195;52.528;5.704;2023-07-13T02:35:10;3.15;;;0.52;;
81799;SDS011;71195;52.528;5.704;2023-07-13T02:37:39;3.13;;;0.95;;
81799;SDS011;71195;52.528;5.704;2023-07-13T02:40:11;3.83;;;0.52;;
81799;SDS011;71195;52.528;5.704;2023-07-13T02:42:41;6.88;;;1.35;;
81799;SDS011;71195;52.528;5.704;2023-07-13T02:45:10;3.22;;;0.80;;
81799;SDS011;71195;52.528;5.704;2023-07-13T02:47:40;3.70;;;1.52;;
81799;SDS011;71195;52.528;5.704;2023-07-13T02:50:10;3.45;;;1.00;;
81799;SDS011;71195;52.528;5.704;2023-07-13T02:52:42;7.00;;;1.20;;
81799;SDS011;71195;52.528;5.704;2023-07-13T02:55:12;6.03;;;1.00;;
81799;SDS011;71195;52.528;5.704;2023-07-13T02:57:41;5.75;;;1.15;;
81799;SDS011;71195;52.528;5.704;2023-07-13T03:00:11;2.20;;;0.70;;
81799;SDS011;71195;52.528;5.704;2023-07-13T03:02:42;7.30;;;1.33;;
81799;SDS011;71195;52.528;5.704;2023-07-13T03:05:11;7.82;;;1.75;;
81799;SDS011;71195;52.528;5.704;2023-07-13T03:07:45;8.80;;;1.35;;
81799;SDS011;71195;52.528;5.704;2023-07-13T03:10:14;5.97;;;0.90;;
81799;SDS011;71195;52.528;5.704;2023-07-13T03:12:48;4.20;;;0.57;;
81799;SDS011;71195;52.528;5.704;2023-07-13T03:15:23;3.70;;;0.77;;
81799;SDS011;71195;52.528;5.704;2023-07-13T03:17:54;6.80;;;1.77;;
81799;SDS011;71195;52.528;5.704;2023-07-13T03:20:23;3.88;;;1.10;;
81799;SDS011;71195;52.528;5.704;2023-07-13T03:22:55;3.38;;;0.82;;
81799;SDS011;71195;52.528;5.704;2023-07-13T03:25:26;3.70;;;0.75;;
81799;SDS011;71195;52.528;5.704;2023-07-13T03:27:56;6.20;;;0.77;;
81799;SDS011;71195;52.528;5.704;2023-07-13T03:30:26;3.88;;;1.20;;
81799;SDS011;71195;52.528;5.704;2023-07-13T03:32:57;2.97;;;0.98;;
81799;SDS011;71195;52.528;5.704;2023-07-13T03:35:27;5.05;;;1.75;;
81799;SDS011;71195;52.528;5.704;2023-07-13T03:37:59;3.90;;;1.02;;
81799;SDS011;71195;52.528;5.704;2023-07-13T03:40:29;9.25;;;0.68;;
81799;SDS011;71195;52.528;5.704;2023-07-13T03:42:59;5.13;;;1.00;;
81799;SDS011;71195;52.528;5.704;2023-07-13T03:45:30;2.72;;;0.80;;
81799;SDS011;71195;52.528;5.704;2023-07-13T03:47:59;5.43;;;0.68;;
81799;SDS011;71195;52.528;5.704;2023-07-13T03:50:29;4.63;;;0.80;;
81799;SDS011;71195;52.528;5.704;2023-07-13T03:53:01;5.70;;;1.00;;
81799;SDS011;71195;52.528;5.704;2023-07-13T03:58:00;6.50;;;1.17;;
81799;SDS011;71195;52.528;5.704;2023-07-13T04:00:51;7.38;;;1.52;;
81799;SDS011;71195;52.528;5.704;2023-07-13T04:03:21;3.90;;;1.17;;
81799;SDS011;71195;52.528;5.704;2023-07-13T04:05:52;2.63;;;1.00;;
81799;SDS011;71195;52.528;5.704;2023-07-13T04:08:28;4.05;;;0.93;;
81799;SDS011;71195;52.528;5.704;2023-07-13T04:11:00;3.00;;;0.63;;
81799;SDS011;71195;52.528;5.704;2023-07-13T04:13:30;6.97;;;1.25;;
81799;SDS011;71195;52.528;5.704;2023-07-13T04:16:00;3.45;;;1.02;;
81799;SDS011;71195;52.528;5.704;2023-07-13T04:18:30;3.83;;;1.15;;
81799;SDS011;71195;52.528;5.704;2023-07-13T04:20:59;5.72;;;1.20;;
81799;SDS011;71195;52.528;5.704;2023-07-13T04:23:31;5.72;;;0.95;;
81799;SDS011;71195;52.528;5.704;2023-07-13T04:26:01;5.82;;;1.30;;
81799;SDS011;71195;52.528;5.704;2023-07-13T04:28:30;5.30;;;0.93;;
81799;SDS011;71195;52.528;5.704;2023-07-13T04:30:59;3.33;;;0.80;;
81799;SDS011;71195;52.528;5.704;2023-07-13T04:33:29;6.43;;;1.17;;
81799;SDS011;71195;52.528;5.704;2023-07-13T04:35:59;5.03;;;0.70;;
81799;SDS011;71195;52.528;5.704;2023-07-13T04:38:32;3.83;;;0.90;;
81799;SDS011;71195;52.528;5.704;2023-07-13T04:41:02;6.70;;;1.25;;
81799;SDS011;71195;52.528;5.704;2023-07-13T04:43:33;5.82;;;2.15;;
81799;SDS011;71195;52.528;5.704;2023-07-13T04:46:03;4.75;;;1.13;;
81799;SDS011;71195;52.528;5.704;2023-07-13T04:48:33;2.92;;;1.15;;
81799;SDS011;71195;52.528;5.704;2023-07-13T04:51:03;6.45;;;1.42;;
81799;SDS011;71195;52.528;5.704;2023-07-13T04:53:35;3.78;;;0.80;;
81799;SDS011;71195;52.528;5.704;2023-07-13T04:56:05;5.15;;;1.10;;
81799;SDS011;71195;52.528;5.704;2023-07-13T04:58:34;5.07;;;0.70;;
81799;SDS011;71195;52.528;5.704;2023-07-13T05:01:04;5.72;;;1.10;;
81799;SDS011;71195;52.528;5.704;2023-07-13T05:03:34;3.80;;;0.75;;
81799;SDS011;71195;52.528;5.704;2023-07-13T05:06:04;11.52;;;1.08;;
81799;SDS011;71195;52.528;5.704;2023-07-13T05:08:38;7.60;;;1.15;;
81799;SDS011;71195;52.528;5.704;2023-07-13T05:11:08;3.67;;;1.10;;
81799;SDS011;71195;52.528;5.704;2023-07-13T05:13:37;6.65;;;1.13;;
81799;SDS011;71195;52.528;5.704;2023-07-13T05:16:06;4.45;;;0.70;;
81799;SDS011;71195;52.528;5.704;2023-07-13T05:18:36;4.47;;;0.73;;
81799;SDS011;71195;52.528;5.704;2023-07-13T05:21:06;4.55;;;0.38;;
81799;SDS011;71195;52.528;5.704;2023-07-13T05:23:40;5.90;;;0.60;;
81799;SDS011;71195;52.528;5.704;2023-07-13T05:26:10;8.23;;;0.80;;
81799;SDS011;71195;52.528;5.704;2023-07-13T05:28:40;4.50;;;1.35;;
81799;SDS011;71195;52.528;5.704;2023-07-13T05:31:09;5.63;;;0.98;;
81799;SDS011;71195;52.528;5.704;2023-07-13T05:33:39;4.80;;;1.10;;
81799;SDS011;71195;52.528;5.704;2023-07-13T05:36:08;7.50;;;1.50;;
81799;SDS011;71195;52.528;5.704;2023-07-13T05:38:40;4.20;;;0.75;;
81799;SDS011;71195;52.528;5.704;2023-07-13T05:41:09;6.18;;;0.85;;
81799;SDS011;71195;52.528;5.704;2023-07-13T05:43:39;5.28;;;1.42;;
81799;SDS011;71195;52.528;5.704;2023-07-13T05:46:08;8.65;;;1.45;;
81799;SDS011;71195;52.528;5.704;2023-07-13T05:48:38;3.28;;;1.15;;
81799;SDS011;71195;52.528;5.704;2023-07-13T05:51:07;5.25;;;1.38;;
81799;SDS011;71195;52.528;5.704;2023-07-13T05:53:39;4.05;;;1.23;;
81799;SDS011;71195;52.528;5.704;2023-07-13T05:56:09;4.60;;;1.13;;
81799;SDS011;71195;52.528;5.704;2023-07-13T05:58:38;4.35;;;1.20;;
81799;SDS011;71195;52.528;5.704;2023-07-13T06:01:10;7.97;;;1.38;;
81799;SDS011;71195;52.528;5.704;2023-07-13T06:03:40;6.80;;;1.30;;
81799;SDS011;71195;52.528;5.704;2023-07-13T06:06:09;2.60;;;1.35;;
81799;SDS011;71195;52.528;5.704;2023-07-13T06:08:42;5.53;;;0.98;;
81799;SDS011;71195;52.528;5.704;2023-07-13T06:11:12;6.82;;;1.38;;
81799;SDS011;71195;52.528;5.704;2023-07-13T06:13:43;2.15;;;0.60;;
81799;SDS011;71195;52.528;5.704;2023-07-13T06:16:13;4.68;;;1.65;;
81799;SDS011;71195;52.528;5.704;2023-07-13T06:18:43;4.45;;;1.17;;
81799;SDS011;71195;52.528;5.704;2023-07-13T06:21:14;4.63;;;0.80;;
81799;SDS011;71195;52.528;5.704;2023-07-13T06:23:48;7.15;;;1.42;;
81799;SDS011;71195;52.528;5.704;2023-07-13T06:26:18;5.28;;;0.77;;
81799;SDS011;71195;52.528;5.704;2023-07-13T06:28:48;5.20;;;1.42;;
81799;SDS011;71195;52.528;5.704;2023-07-13T06:31:18;5.72;;;1.50;;
81799;SDS011;71195;52.528;5.704;2023-07-13T06:33:47;2.47;;;1.38;;
81799;SDS011;71195;52.528;5.704;2023-07-13T06:36:16;7.38;;;1.50;;
81799;SDS011;71195;52.528;5.704;2023-07-13T06:38:48;7.20;;;1.58;;
81799;SDS011;71195;52.528;5.704;2023-07-13T06:41:18;5.45;;;1.15;;
81799;SDS011;71195;52.528;5.704;2023-07-13T06:43:47;6.57;;;1.38;;
81799;SDS011;71195;52.528;5.704;2023-07-13T06:46:17;8.75;;;1.63;;
81799;SDS011;71195;52.528;5.704;2023-07-13T06:48:46;9.07;;;1.27;;
81799;SDS011;71195;52.528;5.704;2023-07-13T06:51:16;9.32;;;1.58;;
81799;SDS011;71195;52.528;5.704;2023-07-13T06:53:45;7.55;;;1.75;;
81799;SDS011;71195;52.528;5.704;2023-07-13T06:56:18;5.93;;;1.58;;
81799;SDS011;71195;52.528;5.704;2023-07-13T06:58:47;5.07;;;1.45;;
81799;SDS011;71195;52.528;5.704;2023-07-13T07:01:16;7.65;;;1.63;;
81799;SDS011;71195;52.528;5.704;2023-07-13T07:03:46;5.50;;;2.40;;
81799;SDS011;71195;52.528;5.704;2023-07-13T07:06:16;7.88;;;2.50;;
81799;SDS011;71195;52.528;5.704;2023-07-13T07:08:50;5.35;;;1.70;;
81799;SDS011;71195;52.528;5.704;2023-07-13T07:11:21;8.25;;;1.70;;
81799;SDS011;71195;52.528;5.704;2023-07-13T07:13:51;7.85;;;1.92;;
81799;SDS011;71195;52.528;5.704;2023-07-13T07:16:21;7.65;;;2.72;;
81799;SDS011;71195;52.528;5.704;2023-07-13T07:18:53;9.02;;;2.30;;
81799;SDS011;71195;52.528;5.704;2023-07-13T07:21:22;5.93;;;1.75;;
81799;SDS011;71195;52.528;5.704;2023-07-13T07:23:54;7.30;;;1.33;;
81799;SDS011;71195;52.528;5.704;2023-07-13T07:26:25;5.78;;;1.67;;
81799;SDS011;71195;52.528;5.704;2023-07-13T07:28:55;4.95;;;1.48;;
81799;SDS011;71195;52.528;5.704;2023-07-13T07:31:24;8.80;;;2.42;;
81799;SDS011;71195;52.528;5.704;2023-07-13T07:33:54;7.88;;;1.90;;
81799;SDS011;71195;52.528;5.704;2023-07-13T07:36:23;6.55;;;1.77;;
81799;SDS011;71195;52.528;5.704;2023-07-13T07:38:56;3.55;;;1.85;;
81799;SDS011;71195;52.528;5.704;2023-07-13T07:41:26;5.93;;;1.02;;
81799;SDS011;71195;52.528;5.704;2023-07-13T07:43:56;3.55;;;1.73;;
81799;SDS011;71195;52.528;5.704;2023-07-13T07:46:25;5.85;;;2.17;;
81799;SDS011;71195;52.528;5.704;2023-07-13T07:48:55;7.43;;;2.05;;
81799;SDS011;71195;52.528;5.704;2023-07-13T07:51:24;7.35;;;1.67;;
81799;SDS011;71195;52.528;5.704;2023-07-13T07:53:57;5.78;;;1.77;;
81799;SDS011;71195;52.528;5.704;2023-07-13T07:56:26;7.57;;;2.10;;
81799;SDS011;71195;52.528;5.704;2023-07-13T07:58:55;5.30;;;2.33;;
81799;SDS011;71195;52.528;5.704;2023-07-13T08:01:25;10.23;;;2.05;;
81799;SDS011;71195;52.528;5.704;2023-07-13T08:03:54;3.00;;;1.13;;
81799;SDS011;71195;52.528;5.704;2023-07-13T08:06:24;1.83;;;0.80;;
81799;SDS011;71195;52.528;5.704;2023-07-13T08:08:53;6.05;;;1.30;;
81799;SDS011;71195;52.528;5.704;2023-07-13T08:11:25;3.97;;;1.20;;
81799;SDS011;71195;52.528;5.704;2023-07-13T08:13:55;3.50;;;0.63;;
81799;SDS011;71195;52.528;5.704;2023-07-13T08:16:26;3.83;;;0.90;;
81799;SDS011;71195;52.528;5.704;2023-07-13T08:18:55;2.72;;;0.65;;
81799;SDS011;71195;52.528;5.704;2023-07-13T08:21:24;2.55;;;0.80;;
81799;SDS011;71195;52.528;5.704;2023-07-13T08:23:54;3.10;;;0.88;;
81799;SDS011;71195;52.528;5.704;2023-07-13T08:26:27;6.68;;;1.10;;
81799;SDS011;71195;52.528;5.704;2023-07-13T08:31:25;2.38;;;1.02;;
81799;SDS011;71195;52.528;5.704;2023-07-13T08:33:55;3.58;;;1.20;;
81799;SDS011;71195;52.528;5.704;2023-07-13T08:36:25;4.38;;;1.38;;
81799;SDS011;71195;52.528;5.704;2023-07-13T08:38:55;5.32;;;1.65;;
81799;SDS011;71195;52.528;5.704;2023-07-13T08:41:27;3.65;;;1.75;;
81799;SDS011;71195;52.528;5.704;2023-07-13T08:43:58;4.50;;;1.13;;
81799;SDS011;71195;52.528;5.704;2023-07-13T08:46:31;2.72;;;1.10;;
81799;SDS011;71195;52.528;5.704;2023-07-13T08:49:05;6.63;;;1.10;;
81799;SDS011;71195;52.528;5.704;2023-07-13T08:51:41;1.77;;;0.98;;
81799;SDS011;71195;52.528;5.704;2023-07-13T08:54:17;3.92;;;1.05;;
81799;SDS011;71195;52.528;5.704;2023-07-13T08:56:53;5.00;;;0.70;;
81799;SDS011;71195;52.528;5.704;2023-07-13T08:59:25;3.40;;;1.35;;
81799;SDS011;71195;52.528;5.704;2023-07-13T09:02:00;5.53;;;1.45;;
81799;SDS011;71195;52.528;5.704;2023-07-13T09:04:53;3.20;;;0.88;;
81799;SDS011;71195;52.528;5.704;2023-07-13T09:07:30;4.13;;;0.95;;
81799;SDS011;71195;52.528;5.704;2023-07-13T09:10:13;3.88;;;1.05;;
81799;SDS011;71195;52.528;5.704;2023-07-13T09:12:46;3.42;;;1.17;;
81799;SDS011;71195;52.528;5.704;2023-07-13T09:15:25;5.88;;;1.48;;
81799;SDS011;71195;52.528;5.704;2023-07-13T09:18:00;3.83;;;0.70;;
81799;SDS011;71195;52.528;5.704;2023-07-13T09:20:37;4.35;;;0.90;;
81799;SDS011;71195;52.528;5.704;2023-07-13T09:23:12;3.53;;;1.00;;
81799;SDS011;71195;52.528;5.704;2023-07-13T09:25:44;4.03;;;1.13;;
81799;SDS011;71195;52.528;5.704;2023-07-13T09:28:17;4.15;;;0.90;;
81799;SDS011;71195;52.528;5.704;2023-07-13T09:30:50;3.30;;;1.42;;
81799;SDS011;71195;52.528;5.704;2023-07-13T09:33:22;3.17;;;1.30;;
81799;SDS011;71195;52.528;5.704;2023-07-13T09:35:57;5.07;;;1.00;;
81799;SDS011;71195;52.528;5.704;2023-07-13T09:38:28;3.53;;;0.90;;
81799;SDS011;71195;52.528;5.704;2023-07-13T09:41:00;3.80;;;1.00;;
81799;SDS011;71195;52.528;5.704;2023-07-13T09:43:37;6.88;;;1.25;;
81799;SDS011;71195;52.528;5.704;2023-07-13T09:46:16;4.50;;;1.10;;
81799;SDS011;71195;52.528;5.704;2023-07-13T09:48:49;4.50;;;0.88;;
81799;SDS011;71195;52.528;5.704;2023-07-13T09:51:21;4.78;;;1.02;;
81799;SDS011;71195;52.528;5.704;2023-07-13T09:53:51;3.00;;;0.77;;
81799;SDS011;71195;52.528;5.704;2023-07-13T09:56:21;2.13;;;0.77;;
81799;SDS011;71195;52.528;5.704;2023-07-13T09:58:51;2.45;;;0.75;;
81799;SDS011;71195;52.528;5.704;2023-07-13T10:01:30;1.90;;;0.60;;
81799;SDS011;71195;52.528;5.704;2023-07-13T10:04:02;3.78;;;0.50;;
81799;SDS011;71195;52.528;5.704;2023-07-13T10:06:42;3.50;;;0.47;;
81799;SDS011;71195;52.528;5.704;2023-07-13T10:09:14;2.17;;;0.38;;
81799;SDS011;71195;52.528;5.704;2023-07-13T10:11:45;1.40;;;0.47;;
81799;SDS011;71195;52.528;5.704;2023-07-13T10:14:16;1.13;;;0.35;;
81799;SDS011;71195;52.528;5.704;2023-07-13T10:16:49;3.33;;;0.43;;
81799;SDS011;71195;52.528;5.704;2023-07-13T10:19:27;3.45;;;0.47;;
81799;SDS011;71195;52.528;5.704;2023-07-13T10:22:09;1.40;;;0.43;;
81799;SDS011;71195;52.528;5.704;2023-07-13T10:24:47;2.72;;;0.80;;
81799;SDS011;71195;52.528;5.704;2023-07-13T10:27:18;4.05;;;0.70;;
81799;SDS011;71195;52.528;5.704;2023-07-13T10:29:52;1.38;;;0.60;;
81799;SDS011;71195;52.528;5.704;2023-07-13T10:32:25;1.35;;;0.55;;
81799;SDS011;71195;52.528;5.704;2023-07-13T10:34:55;6.38;;;0.80;;
81799;SDS011;71195;52.528;5.704;2023-07-13T10:37:30;4.03;;;0.55;;
81799;SDS011;71195;52.528;5.704;2023-07-13T10:40:11;2.65;;;0.65;;
81799;SDS011;71195;52.528;5.704;2023-07-13T10:42:43;3.55;;;0.85;;
81799;SDS011;71195;52.528;5.704;2023-07-13T10:45:15;2.85;;;0.60;;
81799;SDS011;71195;52.528;5.704;2023-07-13T10:47:46;2.08;;;0.93;;
81799;SDS011;71195;52.528;5.704;2023-07-13T10:50:19;4.05;;;0.43;;
81799;SDS011;71195;52.528;5.704;2023-07-13T10:52:53;1.63;;;0.40;;
81799;SDS011;71195;52.528;5.704;2023-07-13T10:55:30;6.53;;;0.57;;
81799;SDS011;71195;52.528;5.704;2023-07-13T10:58:11;5.18;;;0.40;;
81799;SDS011;71195;52.528;5.704;2023-07-13T11:00:49;3.00;;;0.20;;
81799;SDS011;71195;52.528;5.704;2023-07-13T11:03:32;2.00;;;0.25;;
81799;SDS011;71195;52.528;5.704;2023-07-13T11:06:05;3.10;;;0.40;;
81799;SDS011;71195;52.528;5.704;2023-07-13T11:08:51;2.58;;;0.40;;
81799;SDS011;71195;52.528;5.704;2023-07-13T11:11:35;2.08;;;0.20;;
81799;SDS011;71195;52.528;5.704;2023-07-13T11:16:58;1.95;;;0.40;;
81799;SDS011;71195;52.528;5.704;2023-07-13T11:19:37;2.42;;;0.82;;
81799;SDS011;71195;52.528;5.704;2023-07-13T11:22:11;2.65;;;0.60;;
81799;SDS011;71195;52.528;5.704;2023-07-13T11:24:54;3.47;;;0.43;;
81799;SDS011;71195;52.528;5.704;2023-07-13T11:27:37;1.92;;;0.50;;
81799;SDS011;71195;52.528;5.704;2023-07-13T11:30:21;3.67;;;0.30;;
81799;SDS011;71195;52.528;5.704;2023-07-13T11:33:02;4.70;;;0.30;;
81799;SDS011;71195;52.528;5.704;2023-07-13T11:35:38;1.08;;;0.15;;
81799;SDS011;71195;52.528;5.704;2023-07-13T11:38:14;3.22;;;0.30;;
81799;SDS011;71195;52.528;5.704;2023-07-13T11:40:50;2.17;;;0.30;;
81799;SDS011;71195;52.528;5.704;2023-07-13T11:43:22;1.25;;;0.30;;
81799;SDS011;71195;52.528;5.704;2023-07-13T11:45:51;1.75;;;0.35;;
81799;SDS011;71195;52.528;5.704;2023-07-13T11:48:22;3.45;;;0.30;;
81799;SDS011;71195;52.528;5.704;2023-07-13T11:50:58;1.23;;;0.30;;
81799;SDS011;71195;52.528;5.704;2023-07-13T11:53:35;2.95;;;0.50;;
81799;SDS011;71195;52.528;5.704;2023-07-13T11:56:11;3.33;;;0.20;;
81799;SDS011;71195;52.528;5.704;2023-07-13T11:58:41;1.75;;;0.22;;
81799;SDS011;71195;52.528;5.704;2023-07-13T12:01:16;3.00;;;0.10;;
81799;SDS011;71195;52.528;5.704;2023-07-13T12:03:49;2.40;;;0.50;;
81799;SDS011;71195;52.528;5.704;2023-07-13T12:06:25;2.60;;;0.50;;
81799;SDS011;71195;52.528;5.704;2023-07-13T12:08:57;2.00;;;0.45;;
81799;SDS011;71195;52.528;5.704;2023-07-13T12:11:34;0.88;;;0.25;;
81799;SDS011;71195;52.528;5.704;2023-07-13T12:14:05;3.47;;;0.45;;
81799;SDS011;71195;52.528;5.704;2023-07-13T12:16:41;1.85;;;0.50;;
81799;SDS011;71195;52.528;5.704;2023-07-13T12:19:14;4.20;;;0.40;;
81799;SDS011;71195;52.528;5.704;2023-07-13T12:21:46;1.25;;;0.22;;
81799;SDS011;71195;52.528;5.704;2023-07-13T12:24:18;1.55;;;0.20;;
81799;SDS011;71195;52.528;5.704;2023-07-13T12:26:58;3.22;;;0.50;;
81799;SDS011;71195;52.528;5.704;2023-07-13T12:29:30;2.35;;;0.32;;
81799;SDS011;71195;52.528;5.704;2023-07-13T12:32:00;2.47;;;0.28;;
81799;SDS011;71195;52.528;5.704;2023-07-13T12:34:30;1.27;;;0.25;;
81799;SDS011;71195;52.528;5.704;2023-07-13T12:37:01;2.67;;;0.38;;
81799;SDS011;71195;52.528;5.704;2023-07-13T12:39:49;0.90;;;0.20;;
81799;SDS011;71195;52.528;5.704;2023-07-13T12:42:23;2.30;;;0.40;;
81799;SDS011;71195;52.528;5.704;2023-07-13T12:44:56;4.35;;;0.32;;
81799;SDS011;71195;52.528;5.704;2023-07-13T12:47:28;1.65;;;0.35;;
81799;SDS011;71195;52.528;5.704;2023-07-13T12:49:58;1.80;;;0.30;;
81799;SDS011;71195;52.528;5.704;2023-07-13T12:52:31;3.53;;;0.30;;
81799;SDS011;71195;52.528;5.704;2023-07-13T12:55:03;1.33;;;0.28;;
81799;SDS011;71195;52.528;5.704;2023-07-13T12:57:41;1.13;;;0.30;;
81799;SDS011;71195;52.528;5.704;2023-07-13T13:00:24;2.08;;;0.30;;
81799;SDS011;71195;52.528;5.704;2023-07-13T13:03:00;3.90;;;0.40;;
81799;SDS011;71195;52.528;5.704;2023-07-13T13:05:32;1.23;;;0.32;;
81799;SDS011;71195;52.528;5.704;2023-07-13T13:08:03;1.85;;;0.30;;
81799;SDS011;71195;52.528;5.704;2023-07-13T13:10:33;2.90;;;0.30;;
81799;SDS011;71195;52.528;5.704;2023-07-13T13:13:05;1.27;;;0.38;;
81799;SDS011;71195;52.528;5.704;2023-07-13T13:15:34;2.60;;;0.25;;
81799;SDS011;71195;52.528;5.704;2023-07-13T13:18:08;1.52;;;0.43;;
81799;SDS011;71195;52.528;5.704;2023-07-13T13:20:43;2.70;;;0.38;;
81799;SDS011;71195;52.528;5.704;2023-07-13T13:23:13;2.55;;;0.25;;
81799;SDS011;71195;52.528;5.704;2023-07-13T13:25:44;3.25;;;0.40;;
81799;SDS011;71195;52.528;5.704;2023-07-13T13:28:17;1.10;;;0.30;;
81799;SDS011;71195;52.528;5.704;2023-07-13T13:30:49;2.60;;;0.30;;
81799;SDS011;71195;52.528;5.704;2023-07-13T13:33:19;4.18;;;0.40;;
81799;SDS011;71195;52.528;5.704;2023-07-13T13:35:50;1.88;;;0.50;;
81799;SDS011;71195;52.528;5.704;2023-07-13T13:38:20;3.13;;;0.30;;
81799;SDS011;71195;52.528;5.704;2023-07-13T13:40:53;1.58;;;0.30;;
81799;SDS011;71195;52.528;5.704;2023-07-13T13:43:26;2.90;;;0.32;;
81799;SDS011;71195;52.528;5.704;2023-07-13T13:45:56;2.95;;;0.63;;
81799;SDS011;71195;52.528;5.704;2023-07-13T13:48:28;8.13;;;1.98;;
81799;SDS011;71195;52.528;5.704;2023-07-13T13:51:00;1.58;;;0.30;;
81799;SDS011;71195;52.528;5.704;2023-07-13T13:53:35;4.25;;;0.35;;
81799;SDS011;71195;52.528;5.704;2023-07-13T13:56:04;3.72;;;0.30;;
81799;SDS011;71195;52.528;5.704;2023-07-13T13:58:36;6.07;;;0.60;;
81799;SDS011;71195;52.528;5.704;2023-07-13T14:01:09;3.08;;;0.52;;
81799;SDS011;71195;52.528;5.704;2023-07-13T14:03:42;2.75;;;0.60;;
81799;SDS011;71195;52.528;5.704;2023-07-13T14:06:14;1.00;;;0.25;;
81799;SDS011;71195;52.528;5.704;2023-07-13T14:08:44;2.35;;;0.40;;
81799;SDS011;71195;52.528;5.704;2023-07-13T14:11:14;5.20;;;0.65;;
81799;SDS011;71195;52.528;5.704;2023-07-13T14:13:48;1.77;;;0.40;;
81799;SDS011;71195;52.528;5.704;2023-07-13T14:16:21;6.65;;;1.02;;
81799;SDS011;71195;52.528;5.704;2023-07-13T14:18:53;6.13;;;0.55;;
81799;SDS011;71195;52.528;5.704;2023-07-13T14:21:26;2.70;;;0.35;;
81799;SDS011;71195;52.528;5.704;2023-07-13T14:23:56;2.70;;;0.50;;
81799;SDS011;71195;52.528;5.704;2023-07-13T14:26:26;3.50;;;0.68;;
81799;SDS011;71195;52.528;5.704;2023-07-13T14:29:10;2.10;;;0.40;;
81799;SDS011;71195;52.528;5.704;2023-07-13T14:36:42;2.03;;;0.50;;
81799;SDS011;71195;52.528;5.704;2023-07-13T14:39:14;1.40;;;0.60;;
81799;SDS011;71195;52.528;5.704;2023-07-13T14:41:45;1.92;;;0.50;;
81799;SDS011;71195;52.528;5.704;2023-07-13T14:44:17;2.38;;;0.30;;
81799;SDS011;71195;52.528;5.704;2023-07-13T14:46:49;1.15;;;0.40;;
81799;SDS011;71195;52.528;5.704;2023-07-13T14:49:21;2.80;;;0.20;;
81799;SDS011;71195;52.528;5.704;2023-07-13T14:51:55;3.92;;;0.50;;
81799;SDS011;71195;52.528;5.704;2023-07-13T14:54:25;2.03;;;0.40;;
81799;SDS011;71195;52.528;5.704;2023-07-13T14:56:55;3.85;;;0.60;;
81799;SDS011;71195;52.528;5.704;2023-07-13T14:59:27;4.20;;;0.70;;
81799;SDS011;71195;52.528;5.704;2023-07-13T15:01:56;3.70;;;0.32;;
81799;SDS011;71195;52.528;5.704;2023-07-13T15:04:26;2.13;;;0.25;;
81799;SDS011;71195;52.528;5.704;2023-07-13T15:06:56;3.92;;;0.52;;
81799;SDS011;71195;52.528;5.704;2023-07-13T15:09:28;2.28;;;0.57;;
81799;SDS011;71195;52.528;5.704;2023-07-13T15:11:58;2.00;;;0.30;;
81799;SDS011;71195;52.528;5.704;2023-07-13T15:14:30;3.03;;;0.52;;
81799;SDS011;71195;52.528;5.704;2023-07-13T15:16:59;4.50;;;0.50;;
81799;SDS011;71195;52.528;5.704;2023-07-13T15:19:30;3.22;;;0.70;;
81799;SDS011;71195;52.528;5.704;2023-07-13T15:22:00;4.05;;;0.43;;
81799;SDS011;71195;52.528;5.704;2023-07-13T15:24:31;2.63;;;0.55;;
81799;SDS011;71195;52.528;5.704;2023-07-13T15:27:01;1.63;;;0.52;;
81799;SDS011;71195;52.528;5.704;2023-07-13T15:29:33;1.80;;;0.50;;
81799;SDS011;71195;52.528;5.704;2023-07-13T15:32:02;3.53;;;0.43;;